createdAt,value
2022-10-15T00:00:11.322Z,59.10
2022-10-15T00:02:38.013Z,58.60
2022-10-15T00:05:04.803Z,58.71
2022-10-15T00:07:31.401Z,58.91
2022-10-15T00:09:58.047Z,59.20
2022-10-15T00:12:24.703Z,58.74
2022-10-15T00:14:51.545Z,58.71
2022-10-15T00:17:18.206Z,58.39
2022-10-15T00:19:45.014Z,58.66
2022-10-15T00:22:11.588Z,58.91
2022-10-15T00:24:38.186Z,58.39
2022-10-15T00:27:04.782Z,58.11
2022-10-15T00:29:31.376Z,58.59
2022-10-15T00:31:57.952Z,58.35
2022-10-15T00:34:24.603Z,58.52
2022-10-15T00:36:51.426Z,58.49
2022-10-15T00:39:18.114Z,58.27
2022-10-15T00:41:45.155Z,58.52
2022-10-15T00:44:28.692Z,58.09
2022-10-15T00:46:55.332Z,58.42
2022-10-15T00:49:24.415Z,58.54
2022-10-15T00:51:56.871Z,58.44
2022-10-15T00:54:24.630Z,58.56
2022-10-15T00:56:51.529Z,58.09
2022-10-15T00:59:20.143Z,58.28
2022-10-15T01:01:46.874Z,58.14
2022-10-15T01:04:13.543Z,57.93
2022-10-15T01:06:40.210Z,57.99
2022-10-15T01:09:06.993Z,57.96
2022-10-15T01:11:47.629Z,57.95
2022-10-15T01:14:20.208Z,58.26
2022-10-15T01:16:51.194Z,57.88
2022-10-15T01:19:30.078Z,57.79
2022-10-15T01:22:06.266Z,57.77
2022-10-15T01:24:35.950Z,58.04
2022-10-15T01:27:15.631Z,58.11
2022-10-15T01:29:48.119Z,57.82
2022-10-15T01:32:36.243Z,57.93
2022-10-15T01:35:14.207Z,57.67
2022-10-15T01:37:45.002Z,58.14
2022-10-15T01:40:17.740Z,57.99
2022-10-15T01:42:48.884Z,58.16
2022-10-15T01:45:19.574Z,57.94
2022-10-15T01:47:50.551Z,57.73
2022-10-15T01:50:18.225Z,58.16
2022-10-15T01:52:45.118Z,58.15
2022-10-15T01:55:14.116Z,57.72
2022-10-15T01:57:42.627Z,58.06
2022-10-15T02:00:09.520Z,58.18
2022-10-15T02:02:36.131Z,57.87
2022-10-15T02:05:03.226Z,57.70
2022-10-15T02:07:32.853Z,57.68
2022-10-15T02:10:11.237Z,57.66
2022-10-15T02:12:42.031Z,57.95
2022-10-15T02:15:30.237Z,57.65
2022-10-15T02:18:24.715Z,57.76
2022-10-15T02:20:56.368Z,57.76
2022-10-15T02:23:27.288Z,58.25
2022-10-15T02:25:55.920Z,57.98
2022-10-15T02:28:25.937Z,58.11
2022-10-15T02:30:56.213Z,58.09
2022-10-15T02:33:23.514Z,57.82
2022-10-15T02:35:51.552Z,57.96
2022-10-15T02:38:20.188Z,58.07
2022-10-15T02:40:47.784Z,58.14
2022-10-15T02:43:15.119Z,57.93
2022-10-15T02:45:42.371Z,57.82
2022-10-15T02:48:17.214Z,57.60
2022-10-15T02:50:43.888Z,57.63
2022-10-15T02:53:11.711Z,58.13
2022-10-15T02:55:38.370Z,57.60
2022-10-15T02:58:10.589Z,57.99
2022-10-15T03:00:37.187Z,58.01
2022-10-15T03:03:03.854Z,57.62
2022-10-15T03:05:30.663Z,58.03
2022-10-15T03:07:59.238Z,57.73
2022-10-15T03:10:25.795Z,57.95
2022-10-15T03:12:52.377Z,57.97
2022-10-15T03:15:19.138Z,57.99
2022-10-15T03:17:45.842Z,57.94
2022-10-15T03:20:12.445Z,57.95
2022-10-15T03:22:39.061Z,57.80
2022-10-15T03:25:05.839Z,57.60
2022-10-15T03:27:32.561Z,57.99
2022-10-15T03:29:59.196Z,58.09
2022-10-15T03:32:25.857Z,58.04
2022-10-15T03:34:52.575Z,57.81
2022-10-15T03:37:19.162Z,57.64
2022-10-15T03:39:45.797Z,57.80
2022-10-15T03:42:12.466Z,57.62
2022-10-15T03:44:39.079Z,58.01
2022-10-15T03:47:05.687Z,58.11
2022-10-15T03:49:32.305Z,58.08
2022-10-15T03:51:59.016Z,57.76
2022-10-15T03:54:25.658Z,57.71
2022-10-15T03:56:52.249Z,58.04
2022-10-15T03:59:18.873Z,58.11
2022-10-15T04:01:45.474Z,58.05
2022-10-15T04:04:13.126Z,57.64
2022-10-15T04:06:39.766Z,57.73
2022-10-15T04:09:06.585Z,58.08
2022-10-15T04:11:33.192Z,57.70
2022-10-15T04:13:59.757Z,58.05
2022-10-15T04:16:26.427Z,57.71
2022-10-15T04:18:53.043Z,57.84
2022-10-15T04:21:19.818Z,57.69
2022-10-15T04:23:46.383Z,57.63
2022-10-15T04:26:13.017Z,58.05
2022-10-15T04:28:39.833Z,57.62
2022-10-15T04:31:06.522Z,57.84
2022-10-15T04:33:33.131Z,57.70
2022-10-15T04:36:00.709Z,57.99
2022-10-15T04:38:27.480Z,57.82
2022-10-15T04:41:05.443Z,57.60
2022-10-15T04:43:32.395Z,57.85
2022-10-15T04:45:59.795Z,57.72
2022-10-15T04:48:28.139Z,57.71
2022-10-15T04:50:55.114Z,57.65
2022-10-15T04:53:22.116Z,57.96
2022-10-15T04:55:48.739Z,57.76
2022-10-15T04:58:15.395Z,57.68
2022-10-15T05:00:42.120Z,57.97
2022-10-15T05:03:08.732Z,57.64
2022-10-15T05:05:35.322Z,57.86
2022-10-15T05:08:02.810Z,58.07
2022-10-15T05:10:29.422Z,58.14
2022-10-15T05:12:57.015Z,57.69
2022-10-15T05:15:25.413Z,58.20
2022-10-15T05:17:52.016Z,57.71
2022-10-15T05:20:18.678Z,58.10
2022-10-15T05:22:45.258Z,58.08
2022-10-15T05:25:11.882Z,57.60
2022-10-15T05:27:38.500Z,58.12
2022-10-15T05:30:05.437Z,57.96
2022-10-15T05:32:32.231Z,57.74
2022-10-15T05:34:58.826Z,57.71
2022-10-15T05:37:25.614Z,57.97
2022-10-15T05:39:52.414Z,57.96
2022-10-15T05:42:18.996Z,58.22
2022-10-15T05:44:45.594Z,57.91
2022-10-15T05:47:12.670Z,58.25
2022-10-15T05:49:39.414Z,57.99
2022-10-15T05:52:06.047Z,58.15
2022-10-15T05:54:32.632Z,58.35
2022-10-15T05:56:59.202Z,58.27
2022-10-15T05:59:25.862Z,58.51
2022-10-15T06:01:53.041Z,58.16
2022-10-15T06:04:19.861Z,58.11
2022-10-15T06:06:46.447Z,58.40
2022-10-15T06:09:13.023Z,58.02
2022-10-15T06:11:39.696Z,58.07
2022-10-15T06:14:06.296Z,58.11
2022-10-15T06:16:33.568Z,58.12
2022-10-15T06:19:00.291Z,58.10
2022-10-15T06:21:26.955Z,57.88
2022-10-15T06:23:53.582Z,58.07
2022-10-15T06:26:20.168Z,58.47
2022-10-15T06:28:47.061Z,58.98
2022-10-15T06:31:13.909Z,59.48
2022-10-15T06:33:40.565Z,59.78
2022-10-15T06:36:08.292Z,59.93
2022-10-15T06:38:34.939Z,59.79
2022-10-15T06:41:04.075Z,60.00
2022-10-15T06:43:32.529Z,59.80
2022-10-15T06:46:00.749Z,59.92
2022-10-15T06:48:27.391Z,60.03
2022-10-15T06:50:53.989Z,59.77
2022-10-15T06:53:22.601Z,60.23
2022-10-15T06:55:49.208Z,59.91
2022-10-15T06:58:15.810Z,59.97
2022-10-15T07:00:42.383Z,59.89
2022-10-15T07:03:08.960Z,60.01
2022-10-15T07:05:35.869Z,59.63
2022-10-15T07:08:02.624Z,60.01
2022-10-15T07:13:47.236Z,59.80
2022-10-15T07:16:13.908Z,59.36
2022-10-15T07:18:40.677Z,59.46
2022-10-15T07:23:55.580Z,59.38
2022-10-15T07:26:22.204Z,59.08
2022-10-15T07:28:48.889Z,58.79
2022-10-15T07:31:15.593Z,58.82
2022-10-15T07:33:45.049Z,58.62
2022-10-15T07:36:13.001Z,58.64
2022-10-15T07:38:42.509Z,58.54
2022-10-15T07:41:10.329Z,58.06
2022-10-15T07:43:37.337Z,57.86
2022-10-15T07:46:04.285Z,57.89
2022-10-15T07:48:31.446Z,57.89
2022-10-15T07:50:58.831Z,57.80
2022-10-15T07:53:25.500Z,57.66
2022-10-15T07:55:52.125Z,57.53
2022-10-15T07:58:23.243Z,57.28
2022-10-15T08:00:49.824Z,56.82
2022-10-15T08:03:16.588Z,57.32
2022-10-15T08:05:43.174Z,56.77
2022-10-15T08:08:15.517Z,56.52
2022-10-15T08:10:42.141Z,56.43
2022-10-15T08:13:08.858Z,56.79
2022-10-15T08:15:35.456Z,56.56
2022-10-15T08:18:02.041Z,56.46
2022-10-15T08:20:28.753Z,56.89
2022-10-15T08:22:55.688Z,56.95
2022-10-15T08:25:22.284Z,56.49
2022-10-15T08:27:48.845Z,56.92
2022-10-15T08:30:15.497Z,56.93
2022-10-15T08:32:42.166Z,56.47
2022-10-15T08:35:08.998Z,56.65
2022-10-15T08:37:35.608Z,56.38
2022-10-15T08:40:02.764Z,56.32
2022-10-15T08:42:32.445Z,56.80
2022-10-15T08:45:01.106Z,56.25
2022-10-15T08:47:30.782Z,56.17
2022-10-15T08:49:59.433Z,56.43
2022-10-15T08:52:30.065Z,56.28
2022-10-15T08:54:56.866Z,56.66
2022-10-15T08:57:41.994Z,56.29
2022-10-15T09:00:14.400Z,56.79
2022-10-15T09:02:50.637Z,56.52
2022-10-15T09:05:20.223Z,56.71
2022-10-15T09:07:54.402Z,56.59
2022-10-15T09:10:31.059Z,57.22
2022-10-15T09:12:57.670Z,55.75
2022-10-15T09:15:27.712Z,55.49
2022-10-15T09:17:54.927Z,55.97
2022-10-15T09:20:25.362Z,55.69
2022-10-15T09:22:52.322Z,55.54
2022-10-15T09:25:20.840Z,55.45
2022-10-15T09:27:48.849Z,54.93
2022-10-15T09:30:26.209Z,55.27
2022-10-15T09:32:59.980Z,55.32
2022-10-15T09:35:32.515Z,54.58
2022-10-15T09:38:05.654Z,54.53
2022-10-15T09:40:58.119Z,54.38
2022-10-15T09:43:35.709Z,54.19
2022-10-15T09:46:03.877Z,54.36
2022-10-15T09:49:01.102Z,53.68
2022-10-15T09:51:31.796Z,53.98
2022-10-15T09:54:22.143Z,53.52
2022-10-15T09:56:54.203Z,53.32
2022-10-15T09:59:26.224Z,53.44
2022-10-15T10:02:03.826Z,52.95
2022-10-15T10:04:33.675Z,52.68
2022-10-15T10:07:10.983Z,52.45
2022-10-15T10:09:58.026Z,52.37
2022-10-15T10:12:30.064Z,52.69
2022-10-15T10:15:03.495Z,52.45
2022-10-15T10:17:34.433Z,51.97
2022-10-15T10:20:13.470Z,52.58
2022-10-15T10:22:50.465Z,52.35
2022-10-15T10:25:27.531Z,52.36
2022-10-15T10:27:55.632Z,52.40
2022-10-15T10:30:23.175Z,52.11
2022-10-15T10:32:56.732Z,50.58
2022-10-15T10:35:26.989Z,49.82
2022-10-15T10:37:58.507Z,49.31
2022-10-15T10:40:38.492Z,50.17
2022-10-15T10:43:21.192Z,50.49
2022-10-15T10:46:09.756Z,50.38
2022-10-15T10:48:42.501Z,50.77
2022-10-15T10:51:30.786Z,51.07
2022-10-15T10:54:09.040Z,50.90
2022-10-15T10:56:40.769Z,50.72
2022-10-15T10:59:19.831Z,50.56
2022-10-15T11:01:50.926Z,50.85
2022-10-15T11:04:29.371Z,50.63
2022-10-15T11:07:08.263Z,51.30
2022-10-15T11:09:44.512Z,51.22
2022-10-15T11:12:28.408Z,51.11
2022-10-15T11:14:59.121Z,51.04
2022-10-15T11:17:46.490Z,51.07
2022-10-15T11:20:45.570Z,51.24
2022-10-15T11:23:26.470Z,51.55
2022-10-15T11:25:59.110Z,51.49
2022-10-15T11:28:50.266Z,51.36
2022-10-15T11:31:30.135Z,51.41
2022-10-15T11:34:11.792Z,51.06
2022-10-15T11:36:38.840Z,51.37
2022-10-15T11:39:29.608Z,51.06
2022-10-15T11:42:15.325Z,51.20
2022-10-15T12:19:41.065Z,50.92
2022-10-15T12:22:11.991Z,50.54
2022-10-15T12:24:45.467Z,50.57
2022-10-15T12:27:35.859Z,50.55
2022-10-15T12:30:08.638Z,50.90
2022-10-15T12:32:49.855Z,50.88
2022-10-15T12:35:17.790Z,50.97
2022-10-15T12:37:52.337Z,50.59
2022-10-15T12:40:34.479Z,50.89
2022-10-15T12:43:29.615Z,50.82
2022-10-15T12:46:03.815Z,50.79
2022-10-15T12:48:31.072Z,50.97
2022-10-15T12:51:25.910Z,50.78
2022-10-15T12:54:01.381Z,50.44
2022-10-15T12:56:43.915Z,50.93
2022-10-15T12:59:36.384Z,50.75
2022-10-15T13:02:25.120Z,50.92
2022-10-15T13:04:54.984Z,50.55
2022-10-15T13:07:22.222Z,50.54
2022-10-15T13:10:23.999Z,50.53
2022-10-15T13:12:56.727Z,50.45
2022-10-15T13:15:49.104Z,50.68
2022-10-15T13:18:19.191Z,50.73
2022-10-15T13:20:47.599Z,50.60
2022-10-15T13:23:43.885Z,50.46
2022-10-15T13:26:15.037Z,50.25
2022-10-15T13:28:44.734Z,50.65
2022-10-15T13:31:31.081Z,50.87
2022-10-15T13:34:08.832Z,50.81
2022-10-15T13:36:40.050Z,51.00
2022-10-15T13:39:08.794Z,50.89
2022-10-15T13:41:37.317Z,51.20
2022-10-15T13:44:04.561Z,51.26
2022-10-15T13:46:32.918Z,50.96
2022-10-15T13:49:01.260Z,50.97
2022-10-15T13:51:31.983Z,50.65
2022-10-15T13:53:59.583Z,51.06
2022-10-15T13:56:30.172Z,51.28
2022-10-15T13:58:58.458Z,51.27
2022-10-15T14:01:25.987Z,51.23
2022-10-15T14:03:53.576Z,51.37
2022-10-15T14:06:22.964Z,51.36
2022-10-15T14:08:53.877Z,51.44
2022-10-15T14:11:20.602Z,51.01
2022-10-15T14:13:50.516Z,51.05
2022-10-15T14:16:22.611Z,51.45
2022-10-15T14:18:50.750Z,51.12
2022-10-15T14:21:19.285Z,50.87
2022-10-15T14:23:46.660Z,50.43
2022-10-15T14:26:14.344Z,50.30
2022-10-15T14:28:41.752Z,49.85
2022-10-15T14:31:08.734Z,49.77
2022-10-15T14:33:38.137Z,49.90
2022-10-15T14:36:06.241Z,49.63
2022-10-15T14:38:33.840Z,49.39
2022-10-15T14:41:23.729Z,48.87
2022-10-15T14:44:00.934Z,48.57
2022-10-15T14:46:31.833Z,48.09
2022-10-15T14:48:58.455Z,48.54
2022-10-15T14:51:25.835Z,48.01
2022-10-15T14:53:53.161Z,48.20
2022-10-15T14:56:21.601Z,47.96
2022-10-15T14:58:52.420Z,48.15
2022-10-15T15:01:20.116Z,48.03
2022-10-15T15:03:49.031Z,48.18
2022-10-15T15:06:15.886Z,48.30
2022-10-15T15:08:42.576Z,47.55
2022-10-15T15:11:12.454Z,48.04
2022-10-15T15:13:42.079Z,47.87
2022-10-15T15:16:15.337Z,47.91
2022-10-15T15:18:44.076Z,47.74
2022-10-15T15:21:15.508Z,47.97
2022-10-15T15:23:42.895Z,47.83
2022-10-15T15:26:09.585Z,47.72
2022-10-15T15:28:36.213Z,47.59
2022-10-15T15:31:05.686Z,47.79
2022-10-15T15:33:32.854Z,47.97
2022-10-15T15:36:05.278Z,47.80
2022-10-15T15:38:32.006Z,47.26
2022-10-15T15:41:11.046Z,47.54
2022-10-15T15:43:38.796Z,47.55
2022-10-15T15:46:05.581Z,47.36
2022-10-15T15:48:32.189Z,47.74
2022-10-15T15:51:01.916Z,47.57
2022-10-15T15:53:36.081Z,47.55
2022-10-15T15:56:02.665Z,47.61
2022-10-15T15:58:29.382Z,47.31
2022-10-15T16:00:55.977Z,45.94
2022-10-15T16:03:32.076Z,45.69
2022-10-15T16:05:58.984Z,46.91
2022-10-15T16:08:25.612Z,46.37
2022-10-15T16:10:52.187Z,46.83
2022-10-15T16:13:27.156Z,46.08
2022-10-15T16:15:53.720Z,46.31
2022-10-15T16:18:20.403Z,46.51
2022-10-15T16:20:48.721Z,47.09
2022-10-15T16:23:15.821Z,46.90
2022-10-15T16:25:42.748Z,47.27
2022-10-15T16:28:09.623Z,46.73
2022-10-15T16:30:36.307Z,47.47
2022-10-15T16:33:02.895Z,47.02
2022-10-15T16:35:29.520Z,47.07
2022-10-15T16:37:56.416Z,47.14
2022-10-15T16:40:35.134Z,47.61
2022-10-15T16:43:01.755Z,47.45
2022-10-15T16:45:28.394Z,47.65
2022-10-15T16:47:55.031Z,47.46
2022-10-15T16:50:21.717Z,47.72
2022-10-15T16:52:48.314Z,48.03
2022-10-15T16:55:16.875Z,47.82
2022-10-15T16:57:44.579Z,47.89
2022-10-15T17:00:11.531Z,48.30
2022-10-15T17:02:38.303Z,48.14
2022-10-15T17:05:05.090Z,48.29
2022-10-15T17:07:31.652Z,48.10
2022-10-15T17:09:58.306Z,48.33
2022-10-15T17:12:25.173Z,48.21
2022-10-15T17:14:52.237Z,48.51
2022-10-15T17:17:19.036Z,48.32
2022-10-15T17:19:45.692Z,48.29
2022-10-15T17:22:12.320Z,48.26
2022-10-15T17:24:38.865Z,48.60
2022-10-15T17:27:05.642Z,48.11
2022-10-15T17:29:33.514Z,48.49
2022-10-15T17:32:00.685Z,48.00
2022-10-15T17:34:28.179Z,48.26
2022-10-15T17:36:56.306Z,47.94
2022-10-15T17:39:23.216Z,48.20
2022-10-15T17:41:51.094Z,48.16
2022-10-15T17:44:18.254Z,47.82
2022-10-15T17:46:44.831Z,48.22
2022-10-15T17:49:11.549Z,48.29
2022-10-15T17:51:38.236Z,47.97
2022-10-15T17:54:04.879Z,47.92
2022-10-15T17:56:32.661Z,48.35
2022-10-15T17:58:59.667Z,48.33
2022-10-15T18:01:39.352Z,48.35
2022-10-15T18:04:13.088Z,48.37
2022-10-15T18:06:42.635Z,48.57
2022-10-15T18:09:09.301Z,48.57
2022-10-15T18:11:36.116Z,48.52
2022-10-15T18:14:03.114Z,48.42
2022-10-15T18:16:29.710Z,48.62
2022-10-15T18:18:56.356Z,48.88
2022-10-15T18:21:23.894Z,48.75
2022-10-15T18:23:50.495Z,48.81
2022-10-15T18:26:20.939Z,49.14
2022-10-15T18:28:48.445Z,49.09
2022-10-15T18:31:15.755Z,49.21
2022-10-15T18:33:43.395Z,48.79
2022-10-15T18:36:14.653Z,49.03
2022-10-15T18:38:43.561Z,48.77
2022-10-15T18:41:14.453Z,49.15
2022-10-15T18:43:41.020Z,49.10
2022-10-15T18:46:07.682Z,48.55
2022-10-15T18:48:34.295Z,48.62
2022-10-15T18:51:19.846Z,48.14
2022-10-15T18:53:58.822Z,47.92
2022-10-15T18:56:28.263Z,48.21
2022-10-15T18:58:55.206Z,48.35
2022-10-15T19:01:25.105Z,48.38
2022-10-15T19:03:52.833Z,48.25
2022-10-15T19:06:22.385Z,47.89
2022-10-15T19:08:49.488Z,47.75
2022-10-15T19:11:16.750Z,47.61
2022-10-15T19:13:43.389Z,47.93
2022-10-15T19:16:13.352Z,47.62
2022-10-15T19:18:39.957Z,47.77
2022-10-15T19:21:06.753Z,47.81
2022-10-15T19:23:44.046Z,47.74
2022-10-15T19:26:11.569Z,47.95
2022-10-15T19:28:38.424Z,47.66
2022-10-15T19:31:07.353Z,48.19
2022-10-15T19:33:42.533Z,47.83
2022-10-15T19:36:18.662Z,47.74
2022-10-15T19:38:45.251Z,47.93
2022-10-15T19:41:11.805Z,48.20
2022-10-15T19:43:38.387Z,47.77
2022-10-15T19:46:05.056Z,47.92
2022-10-15T19:48:31.733Z,48.00
2022-10-15T19:51:01.038Z,47.96
2022-10-15T19:53:33.270Z,48.16
2022-10-15T19:56:01.389Z,47.97
2022-10-15T19:58:28.583Z,48.46
2022-10-15T20:00:55.660Z,48.56
2022-10-15T20:03:27.736Z,48.06
2022-10-15T20:05:54.744Z,48.22
2022-10-15T20:08:21.781Z,48.54
2022-10-15T20:10:51.534Z,48.65
2022-10-15T20:13:18.882Z,48.40
2022-10-15T20:15:46.409Z,48.43
2022-10-15T20:18:15.226Z,48.41
2022-10-15T20:20:44.337Z,48.39
2022-10-15T20:23:11.984Z,48.66
2022-10-15T20:25:38.645Z,48.33
2022-10-15T20:28:05.656Z,48.50
2022-10-15T20:30:32.489Z,48.68
2022-10-15T20:32:59.088Z,48.44
2022-10-15T20:35:25.700Z,48.33
2022-10-15T20:37:52.331Z,48.62
2022-10-15T20:40:19.219Z,48.58
2022-10-15T20:42:45.927Z,48.76
2022-10-15T20:45:16.392Z,49.25
2022-10-15T20:47:49.701Z,48.89
2022-10-15T20:50:19.591Z,49.30
2022-10-15T20:52:46.605Z,49.19
2022-10-15T20:55:13.167Z,49.20
2022-10-15T20:57:40.088Z,49.27
2022-10-15T21:00:07.831Z,49.43
2022-10-15T21:02:34.475Z,49.38
2022-10-15T21:05:01.339Z,49.16
2022-10-15T21:07:27.952Z,49.22
2022-10-15T21:09:54.694Z,49.36
2022-10-15T21:12:21.365Z,49.18
2022-10-15T21:14:47.977Z,49.35
2022-10-15T21:17:14.617Z,49.56
2022-10-15T21:19:41.194Z,49.32
2022-10-15T21:22:07.883Z,49.75
2022-10-15T21:24:38.488Z,49.21
2022-10-15T21:27:05.273Z,49.26
2022-10-15T21:29:31.838Z,49.08
2022-10-15T21:31:58.408Z,49.45
2022-10-15T21:34:27.956Z,49.04
2022-10-15T21:36:57.678Z,48.95
2022-10-15T21:39:24.292Z,49.03
2022-10-15T21:41:50.873Z,49.08
2022-10-15T21:44:17.482Z,48.81
2022-10-15T21:46:44.174Z,49.17
2022-10-15T21:49:11.209Z,48.68
2022-10-15T21:51:37.911Z,48.94
2022-10-15T21:54:07.574Z,48.67
2022-10-15T21:56:35.683Z,48.81
2022-10-15T21:59:02.422Z,49.01
2022-10-15T22:01:32.923Z,48.79
2022-10-15T22:04:04.243Z,49.05
2022-10-15T22:06:32.202Z,48.72
2022-10-15T22:08:58.969Z,48.47
2022-10-15T22:14:14.341Z,48.62
2022-10-15T22:16:41.253Z,48.60
2022-10-15T22:19:11.040Z,48.41
2022-10-15T22:21:38.840Z,48.57
2022-10-15T22:24:07.121Z,48.62
2022-10-15T22:26:35.674Z,48.71
2022-10-15T22:29:03.226Z,48.57
2022-10-15T22:31:30.116Z,49.24
2022-10-15T22:33:58.620Z,49.58
2022-10-15T22:36:26.386Z,49.47
2022-10-15T22:41:41.942Z,49.77
2022-10-15T22:44:09.602Z,49.53
2022-10-15T22:46:38.123Z,49.91
2022-10-15T22:49:05.406Z,49.80
2022-10-15T22:51:32.768Z,49.80
2022-10-15T22:53:59.538Z,49.82
2022-10-15T22:56:26.804Z,50.15
2022-10-15T22:58:54.864Z,50.18
2022-10-15T23:01:26.253Z,49.58
2022-10-15T23:03:54.343Z,49.79
2022-10-15T23:06:21.690Z,49.77
2022-10-15T23:08:48.343Z,50.15
2022-10-15T23:11:17.111Z,50.06
2022-10-15T23:13:44.938Z,49.97
2022-10-15T23:16:18.537Z,50.22
2022-10-15T23:18:45.883Z,50.38
2022-10-15T23:21:16.978Z,50.27
2022-10-15T23:23:44.191Z,50.09
2022-10-15T23:26:11.934Z,50.14
2022-10-15T23:28:38.561Z,50.40
2022-10-15T23:31:05.285Z,50.36
2022-10-15T23:33:33.588Z,50.34
2022-10-15T23:36:02.143Z,50.38
2022-10-15T23:38:28.755Z,50.56
2022-10-15T23:41:08.092Z,50.13
2022-10-15T23:43:37.475Z,50.19
2022-10-15T23:46:04.232Z,50.46
2022-10-15T23:48:30.892Z,50.27
2022-10-15T23:51:00.974Z,50.61
2022-10-15T23:53:32.605Z,50.54
2022-10-15T23:56:01.203Z,50.24
2022-10-15T23:58:27.851Z,50.19
